Impacts METAR Board
IDs:

KPIT - Pittsburgh Intl, PA, US

Updated at: 1800 UTC 22 Sep 2018
Potential Impact None Slight Moderate High
Time 22/06Z 22/07Z 22/08Z 22/09Z 22/10Z 22/11Z 22/12Z 22/13Z 22/14Z 22/15Z 22/16Z 22/17Z 22/18Z
Temp66 63 62 61 60 59 59 58 58 59 59 59 59
Dewpt59 56 54 54 54 53 53 52 50 50 48 48 48
Altim30.10 30.12 30.14 30.16 30.17 30.19 30.21 30.23 30.24 30.26 30.26 30.25 30.24
VIS10 10 10 10 10 10 10 10 10 10 10 10 10
CIG-- -- 170 180 200 220 220 200 180 180 180 180 160
CoverFEWSCTBKNOVCOVCBKNOVCOVCOVCOVCOVCOVCOVC
FltCatVFRVFRVFRVFRVFRVFRVFRVFRVFRVFRVFRVFRVFR
WX--------------------------
WDir34034035035001010101010201030
WSpd11 8 11 8 6 5 8 8 8 7 6 6 5
WGst-- -- -- -- -- -- -- -- -- -- -- -- --
Raw hourly METARs
KPIT 220551Z 34011KT 10SM FEW150 FEW230 19/15 A3010 RMK AO2 SLP191 60051 T01890150 10233 20189 53024 $
KPIT 220651Z 34008KT 10SM SCT160 SCT250 17/13 A3012 RMK AO2 SLP198 T01720133 $
KPIT 220751Z 35011KT 10SM BKN170 BKN250 17/12 A3014 RMK AO2 SLP206 T01670122 $
KPIT 220851Z 35008KT 10SM OVC180 16/12 A3016 RMK AO2 SLP211 T01610122 51018 $
KPIT 220951Z VRB06KT 10SM OVC200 16/12 A3017 RMK AO2 SLP216 T01560122 $
KPIT 221051Z 01005KT 10SM BKN220 15/12 A3019 RMK AO2 SLP224 T01500117 $
KPIT 221151Z 01008KT 10SM FEW020 OVC220 15/12 A3021 RMK AO2 SLP233 70051 T01500117 10189 20144 53018 $
KPIT 221251Z 01008KT 10SM SCT019 OVC200 14/11 A3023 RMK AO2 SLP241 T01440111 $
KPIT 221351Z 01008KT 10SM FEW021 OVC180 14/10 A3024 RMK AO2 SLP244 T01440100 $
KPIT 221451Z 01007KT 10SM SCT022 OVC180 15/10 A3026 RMK AO2 SLP251 T01500100 53017 $
KPIT 221551Z 02006KT 10SM SCT024 OVC180 15/09 A3026 RMK AO2 SLP251 T01500089 $
KPIT 221651Z 01006KT 10SM SCT026 OVC180 15/09 A3025 RMK AO2 SLP249 T01500089 $
KPIT 221751Z 03005KT 10SM SCT028 OVC160 15/09 A3024 RMK AO2 SLP245 T01500089 10156 20144 58007 $



Page loaded:  18:25 UTC  |   11:25 AM Pacific  |   12:25 PM Mountain  |   01:25 PM Central  |   02:25 PM Eastern

 

ADVISORIES

FORECASTS

FORECASTS

OBSERVATIONS

USER TOOLS

ABOUT US